レイキャビク/ケフラヴィーク の空港の天気 - METARとTAF

ケフラヴィーク国際空港 ( BIKF / KEF ) - アイスランド ケプラヴィーク
飛行場実況気象(Metar)
観測時間04/21 16:30 GMT (04/21 16:30 UTC)
風向・風速東北東 6m/s
視程10km以上
天気現象
少しの雲 雲底高度 910m
全天の8割程度の雲 雲底高度 1430m
全天を覆う雲 雲底高度 2590m
気温7℃
湿度70%
気圧1002hPa
METARBIKF 211630Z 07011KT 9999 FEW030 BKN047 OVC085 07/02 Q1002
過去の天気等 Google飛行場航空写真 Wunderground天気予報

過去48時間のMETAR

飛行場予報(TAF)
発表時間: 4/21 13:46 GMT (4/21 13:46 UTC)
予報対象時間: 21日15時 GMT ~ 22日15時 GMT
風向・風速北北東 4m/s
視程10km以上
全天の4割程度の雲 雲底高度 730m
全天の8割程度の雲 雲底高度 1040m
21日15時 GMT ~ 21日21時 GMT に 確率 40% で一時的に
視程5000m
天気現象しゅう雨
全天の8割程度の雲 雲底高度 300m
全天を覆う雲 雲底高度 610m
TAF BIKF 211346Z 2115/2215 02008KT 9999 SCT024 BKN034 TX07/2115Z TN01/2206Z
PROB40 TEMPO 2115/2121 5000 SHRA BKN010 OVC020